Muskego, WI

11:20 AM CST on December 07, 2016 (GMT -0600)
| | Change Station

Elev -9999 ft 0.00 °N, 0.00 °E | Updated

Mostly Cloudy
Mostly Cloudy
25 °F
Feels Like 12 °F
N
17
Wind Variable Wind from WSW
Gusts 23 mph

Today
High -- | Low -- °F
--% Chance of Precip.
Yesterday
High -- | Low -- °F
Precip. -- in
Pressure 30.03 in
Visibility 10.0 miles
Clouds Clear
Windchill 12 °F
Dew Point 17 °F
Humidity 69%
Rainfall --
Snow Depth Not available.
7:10 AM 4:18 PM
First Quarter, 54% visible
METAR KUES 071645Z 24012KT 10SM SKC M05/M09 A3003
Pressure 30.03 in
Visibility 10.0 miles
Clouds Clear
Windchill 12 °F
Dew Point 17 °F
Humidity 69%
Rainfall --
Snow Depth Not available.
7:10 AM 4:18 PM
First Quarter, 54% visible
METAR KUES 071645Z 24012KT 10SM SKC M05/M09 A3003

10-Day Weather Forecast

Almanac

Astronomy

Dec. 07, 2016 Rise Set
Actual Time
Civil Twilight
Nautical Twilight
Astronomical Twilight
Moon
Length of Visible Light
Length of Day
Tomorrow will be .
, % of the Moon is Illuminated

Today's Extremes

State Highs State Lows

Community

WunderPhotos

Upload Photos

1,956,151 photos uploaded!

WunderBlog® & News

Nearby

Air Quality

  Air Quality AQ Index Pollutant
Not available.

Snow Depth

Station Depth Elevation

Earthquake Activity

City Distance Mag. Time & Date
Minimum magnitude displayed is 2.5.

Coastal Water Temperatures

Place Temperature

Stations

Nearby Weather Stations

Station Location Temp. Windchill Dew Point Humidity Wind Precip. Elev Updated Type
                   

Watches & Warnings

There are currently no watches in effect.